Darstellungsparameter: Aktuell verwendete Einstellungen:
Skalierung der Graphiken ... ?
xyx+y,   Skalierungsfaktor:      Skalierung: Modus: x, Faktor: 1
Darstellungszeitraum ... ?
Vom - - bis: - -   Zeitraum: 15.08.2020 - 15.08.2020
Min/Max/Avg-Anzeige ... ?
Zeige MMA aktuell
Zeige MMA Monat
Zeige MMA alles
Zeige --A aktuell
Zeige --A Monat
Zeige --A alles
Keine MMA-Anzeige
MMA:
Keine MMA-Graphiken
MMA-Basis: 15.08.2020 - 15.08.2020
Quicknavigation für Darstellung... ?
Tage:      1T, 2T, 3T, 5T -1T -2T -3T -5T +1T +2T +3T +5T
Wochen: 1W, 2W, 3W -1W -2W -3W +1W +2W +3W
Monate: 1M, 3M, 6M -1M -3M -6M +1M +3M +6M
Jahre:    1J, 3J, 5J, 10J -1J -3J -5J -10J +1J +3J +5J +10J
Nutze für die Darstellung ... ?
Originaldaten oder Mittelwerte auf ...
Stundenbasis Tagesbasis Wochenbasis
Monatsbasis Jahresbasis      Datenbasis: Original-Daten
Darstellen als:
Statistik (Auto) Statistik J:M      Darstellung:
Zur Graphik,    zurück zur Übersicht aller Sensoren.
 
Tabellarische Datenbersicht: ?
 
Sensor: Nr:Datum:Temp:Feuchte:
Aussen-T/F 1 15-08-2020 02:02:17 20.8 C 36 %
2 15-08-2020 02:12:18 20.4 C 36 %
3 15-08-2020 02:22:17 20.2 C 36 %
4 15-08-2020 02:32:18 20.2 C 36 %
5 15-08-2020 02:42:18 19.8 C 38 %
6 15-08-2020 02:52:17 19.5 C 39 %
7 15-08-2020 03:02:18 19.4 C 39 %
8 15-08-2020 03:12:18 19.4 C 40 %
9 15-08-2020 03:22:17 19.3 C 39 %
10 15-08-2020 03:32:17 19.2 C 40 %
11 15-08-2020 03:42:17 19 C 40 %
12 15-08-2020 03:52:18 18.7 C 41 %
13 15-08-2020 04:02:17 18.6 C 41 %
14 15-08-2020 04:12:17 18.6 C 42 %
15 15-08-2020 04:22:17 18.5 C 41 %
16 15-08-2020 04:32:18 18.5 C 42 %
17 15-08-2020 04:42:18 18.3 C 41 %
18 15-08-2020 04:52:17 18.1 C 41 %
19 15-08-2020 05:02:18 18.3 C 42 %
20 15-08-2020 05:12:18 18.2 C 42 %
21 15-08-2020 05:22:17 18.3 C 42 %
22 15-08-2020 05:32:17 18.5 C 42 %
23 15-08-2020 05:42:17 18.5 C 42 %
24 15-08-2020 05:52:18 18.5 C 41 %
25 15-08-2020 06:02:17 18.5 C 42 %
Sensor: Nr:Datum:Temp:Feuchte:
Aussen-T/F 26 15-08-2020 06:12:17 18.3 C 41 %
27 15-08-2020 06:22:17 18.3 C 41 %
28 15-08-2020 06:32:17 18.1 C 42 %
29 15-08-2020 06:42:17 18.1 C 42 %
30 15-08-2020 06:52:18 18.1 C 42 %
31 15-08-2020 07:02:17 18.3 C 42 %
32 15-08-2020 07:12:17 18.7 C 42 %
33 15-08-2020 07:22:18 19.1 C 41 %
34 15-08-2020 07:32:18 19.3 C 41 %
35 15-08-2020 07:42:18 19.7 C 40 %
36 15-08-2020 07:52:17 19.9 C 39 %
37 15-08-2020 08:02:17 20.3 C 37 %
38 15-08-2020 08:12:17 20.6 C 36 %
39 15-08-2020 08:22:17 20.9 C 36 %
40 15-08-2020 08:32:17 20.7 C 36 %
41 15-08-2020 08:42:17 21.2 C 35 %
42 15-08-2020 08:52:17 21.5 C 35 %
43 15-08-2020 09:02:17 21.9 C 35 %
44 15-08-2020 09:12:17 21.7 C 34 %
45 15-08-2020 09:22:17 22.3 C 33 %
46 15-08-2020 09:32:17 22.8 C 32 %
47 15-08-2020 09:42:17 22.6 C 32 %
48 15-08-2020 09:52:17 22.9 C 32 %
49 15-08-2020 10:02:18 23.4 C 31 %
50 15-08-2020 10:12:18 24.2 C 30 %
Sensor: Nr:Datum:Temp:Feuchte:
Aussen-T/F 51 15-08-2020 10:22:17 24.5 C 29 %
52 15-08-2020 10:32:18 25.1 C 28 %
53 15-08-2020 10:42:18 24.9 C 29 %
54 15-08-2020 10:52:17 25.6 C 27 %
55 15-08-2020 11:02:18 26.2 C 27 %
56 15-08-2020 11:12:18 26 C 26 %
57 15-08-2020 11:22:17 26.4 C 26 %
58 15-08-2020 11:32:17 27 C 25 %
59 15-08-2020 11:42:17 27.4 C 25 %
60 15-08-2020 11:52:17 30 C 22 %
61 15-08-2020 12:02:18 27.7 C 25 %
62 15-08-2020 12:12:18 26.7 C 25 %
63 15-08-2020 12:22:17 26.7 C 25 %
64 15-08-2020 12:32:17 27.6 C 25 %
65 15-08-2020 12:42:18 27.7 C 24 %
66 15-08-2020 12:52:17 27.2 C 25 %
67 15-08-2020 13:02:18 27.5 C 25 %
68 15-08-2020 13:12:18 27.3 C 24 %
69 15-08-2020 13:22:18 27.4 C 24 %
70 15-08-2020 13:32:17 27.7 C 24 %
71 15-08-2020 13:42:17 27.4 C 24 %
72 15-08-2020 13:52:17 27.7 C 24 %
73 15-08-2020 14:02:18 28.3 C 23 %
74 15-08-2020 14:12:18 29 C 22 %
75 15-08-2020 14:22:18 29.1 C 22 %
Sensor: Nr:Datum:Temp:Feuchte:
Aussen-T/F 76 15-08-2020 14:32:17 27.4 C 23 %
77 15-08-2020 14:42:17 25.9 C 25 %
78 15-08-2020 14:52:17 25.6 C 25 %
79 15-08-2020 15:02:18 25.5 C 25 %
80 15-08-2020 15:12:18 25.3 C 24 %
81 15-08-2020 15:22:17 25.3 C 25 %
82 15-08-2020 15:32:18 25.2 C 25 %
83 15-08-2020 15:42:18 24.7 C 27 %
84 15-08-2020 15:52:17 24.4 C 27 %
85 15-08-2020 16:02:17 23.4 C 30 %
86 15-08-2020 16:12:17 22.9 C 33 %
87 15-08-2020 16:22:18 22.9 C 33 %
88 15-08-2020 16:32:17 22.9 C 33 %
89 15-08-2020 16:42:17 23 C 31 %
90 15-08-2020 16:52:17 23.8 C 31 %
91 15-08-2020 17:02:17 24.8 C 30 %
92 15-08-2020 17:12:17 23.9 C 31 %
93 15-08-2020 17:22:17 24.5 C 30 %
94 15-08-2020 17:32:17 25.7 C 28 %
95 15-08-2020 17:42:17 26.1 C 27 %
96 15-08-2020 17:52:17 25.6 C 28 %
97 15-08-2020 18:02:17 25 C 28 %
98 15-08-2020 18:12:17 24.7 C 29 %
99 15-08-2020 18:22:18 24.3 C 30 %
100 15-08-2020 18:32:17 24.1 C 30 %
Sensor: Nr:Datum:Temp:Feuchte:
Aussen-T/F 101 15-08-2020 18:42:17 23.7 C 31 %
102 15-08-2020 18:52:17 23.6 C 32 %
103 15-08-2020 19:02:17 23.5 C 32 %
104 15-08-2020 19:12:17 23.4 C 32 %
105 15-08-2020 19:22:17 23.5 C 32 %
106 15-08-2020 19:32:18 23.7 C 32 %
107 15-08-2020 19:42:18 23.7 C 32 %
108 15-08-2020 19:52:18 23.1 C 32 %
109 15-08-2020 20:02:17 23.5 C 33 %
110 15-08-2020 20:12:17 23.5 C 33 %
111 15-08-2020 20:22:17 23.2 C 33 %
112 15-08-2020 20:32:17 22.8 C 34 %
113 15-08-2020 20:42:17 22.5 C 33 %
114 15-08-2020 20:52:17 22.3 C 33 %
115 15-08-2020 21:02:17 22.2 C 34 %
116 15-08-2020 21:12:17 21.8 C 35 %
117 15-08-2020 21:22:17 21.7 C 36 %
118 15-08-2020 21:32:17 21.4 C 36 %
119 15-08-2020 21:42:17 21.3 C 37 %
120 15-08-2020 21:52:17 21.2 C 37 %
121 15-08-2020 22:02:17 21.2 C 37 %
122 15-08-2020 22:12:17 21.1 C 37 %
123 15-08-2020 22:22:17 20.9 C 38 %
124 15-08-2020 22:32:17 20.8 C 39 %
125 15-08-2020 22:42:17 20.8 C 39 %
Sensor: Nr:Datum:Temp:Feuchte:
Aussen-T/F 126 15-08-2020 22:52:18 20.6 C 39 %
127 15-08-2020 23:02:17 20.4 C 40 %
128 15-08-2020 23:12:17 20.4 C 40 %
129 15-08-2020 23:22:17 20.1 C 40 %
130 15-08-2020 23:32:17 19.8 C 40 %
131 15-08-2020 23:42:17 19.7 C 41 %
132 15-08-2020 23:52:18 19.4 C 41 %
Sensor: Nr:Datum:Temp:Feuchte:

Legende:
   Min
   Max


Maximal/Minimal-Werte vom 15.08.2020 - 15.08.2020

Sensor Min Max Avg
Temp
(Aussen-T/F)
18.1 °C
15-08-2020  04:52:17
30 °C
15-08-2020  11:52:17
22.61 °C
Feuchte
(Aussen-T/F)
22 %
15-08-2020  11:52:17
42 %
15-08-2020  04:12:17
33.34 %
Temp
(G-T/H)
°C
-- 
°C 0 °C
Feuchte
(G-T/H)
%
-- 
% 0 %

Die Daten stammen von einer Davis Vantage Pro 2 Wetter-Station und werden unter Linux mit der Software wview2wettercgi und aufbereitet. Alle Angaben erfolgen ohne Gewähr für ihre Vollständigkeit oder Richtigkeit.
Kontakt: Rainer Krienke krienke@uni-koblenz.de . Meine Webseiten an der Uni Koblenz oder privat.
Version: $Revision: 0.78 $